createdAt,value
2019-03-27T00:00:49.479Z,1022.85
2019-03-27T00:01:49.472Z,1022.86
2019-03-27T00:02:49.460Z,1022.90
2019-03-27T00:03:49.463Z,1022.88
2019-03-27T00:04:49.443Z,1022.91
2019-03-27T00:05:49.426Z,1022.91
2019-03-27T00:06:49.413Z,1022.89
2019-03-27T00:07:49.414Z,1022.90
2019-03-27T00:08:49.470Z,1022.92
2019-03-27T00:09:49.390Z,1022.94
2019-03-27T00:10:49.375Z,1022.96
2019-03-27T00:11:49.362Z,1022.93
2019-03-27T00:12:49.346Z,1022.89
2019-03-27T00:13:49.342Z,1022.90
2019-03-27T00:14:49.379Z,1022.89
2019-03-27T00:15:49.328Z,1022.87
2019-03-27T00:16:49.307Z,1022.89
2019-03-27T00:17:49.346Z,1022.88
2019-03-27T00:18:49.287Z,1022.88
2019-03-27T00:19:49.301Z,1022.94
2019-03-27T00:20:49.269Z,1022.93
2019-03-27T00:21:49.252Z,1022.98
2019-03-27T00:22:49.240Z,1022.95
2019-03-27T00:23:49.233Z,1022.93
2019-03-27T00:24:49.222Z,1022.95
2019-03-27T00:25:49.220Z,1022.98
2019-03-27T00:26:49.191Z,1022.97
2019-03-27T00:27:49.194Z,1022.99
2019-03-27T00:28:49.175Z,1022.95
2019-03-27T00:29:49.158Z,1022.99
2019-03-27T00:30:49.153Z,1022.98
2019-03-27T00:31:49.192Z,1022.98
2019-03-27T00:32:49.127Z,1023.03
2019-03-27T00:33:49.120Z,1023.00
2019-03-27T00:34:49.149Z,1023.04
2019-03-27T00:35:49.097Z,1023.00
2019-03-27T00:36:49.148Z,1022.99
2019-03-27T00:37:49.077Z,1023.04
2019-03-27T00:38:49.070Z,1023.02
2019-03-27T00:39:49.055Z,1022.96
2019-03-27T00:40:49.038Z,1022.96
2019-03-27T00:41:49.032Z,1022.94
2019-03-27T00:42:49.053Z,1023.00
2019-03-27T00:43:49.010Z,1022.97
2019-03-27T00:44:48.998Z,1022.92
2019-03-27T00:45:48.985Z,1022.92
2019-03-27T00:46:48.970Z,1022.87
2019-03-27T00:47:48.964Z,1022.95
2019-03-27T00:48:48.980Z,1022.92
2019-03-27T00:49:48.940Z,1022.99
2019-03-27T00:50:48.931Z,1022.94
2019-03-27T00:51:48.915Z,1022.94
2019-03-27T00:52:48.905Z,1022.97
2019-03-27T00:53:48.946Z,1022.98
2019-03-27T00:54:48.887Z,1023.00
2019-03-27T00:55:48.874Z,1022.98
2019-03-27T00:56:48.865Z,1022.95
2019-03-27T00:57:48.847Z,1022.95
2019-03-27T00:58:48.845Z,1022.94
2019-03-27T00:59:48.880Z,1022.96
2019-03-27T01:00:48.820Z,1022.93
2019-03-27T01:01:48.806Z,1022.93
2019-03-27T01:02:48.795Z,1022.96
2019-03-27T01:03:48.786Z,1022.95
2019-03-27T01:04:48.824Z,1022.96
2019-03-27T01:05:48.767Z,1022.95
2019-03-27T01:06:50.905Z,1022.92
2019-03-27T01:07:48.742Z,1022.91
2019-03-27T01:08:48.730Z,1022.95
2019-03-27T01:09:48.785Z,1022.95
2019-03-27T01:10:48.709Z,1022.95
2019-03-27T01:11:48.696Z,1022.88
2019-03-27T01:12:48.686Z,1022.91
2019-03-27T01:13:48.676Z,1022.90
2019-03-27T01:14:48.665Z,1022.85
2019-03-27T01:15:48.802Z,1022.86
2019-03-27T01:16:48.640Z,1022.84
2019-03-27T01:17:48.634Z,1022.83
2019-03-27T01:18:48.620Z,1022.90
2019-03-27T01:19:48.608Z,1022.87
2019-03-27T01:20:48.598Z,1022.82
2019-03-27T01:21:48.656Z,1022.85
2019-03-27T01:22:48.571Z,1022.86
2019-03-27T01:23:48.564Z,1022.85
2019-03-27T01:24:48.557Z,1022.86
2019-03-27T01:25:48.536Z,1022.89
2019-03-27T01:26:48.535Z,1022.90
2019-03-27T01:27:48.514Z,1022.86
2019-03-27T01:28:48.508Z,1022.92
2019-03-27T01:29:48.492Z,1022.88
2019-03-27T01:30:48.482Z,1022.89
2019-03-27T01:31:48.567Z,1022.91
2019-03-27T01:32:48.457Z,1022.89
2019-03-27T01:33:48.453Z,1022.89
2019-03-27T01:34:48.436Z,1022.91
2019-03-27T01:35:48.428Z,1022.90
2019-03-27T01:36:48.420Z,1022.89
2019-03-27T01:37:48.457Z,1022.92
2019-03-27T01:38:48.397Z,1022.91
2019-03-27T01:39:48.385Z,1022.92
2019-03-27T01:40:48.379Z,1022.92
2019-03-27T01:41:48.359Z,1022.93
2019-03-27T01:42:48.400Z,1022.95
2019-03-27T01:43:48.388Z,1022.94
2019-03-27T01:44:48.325Z,1022.94
2019-03-27T01:45:53.369Z,1022.99
2019-03-27T01:46:49.307Z,1023.00
2019-03-27T01:47:48.345Z,1022.96
2019-03-27T01:48:48.286Z,1023.01
2019-03-27T01:49:48.269Z,1023.00
2019-03-27T01:50:48.260Z,1022.96
2019-03-27T01:51:48.252Z,1022.95
2019-03-27T01:52:48.253Z,1022.97
2019-03-27T01:53:48.225Z,1022.97
2019-03-27T01:54:48.219Z,1022.96
2019-03-27T01:55:48.206Z,1023.00
2019-03-27T01:56:48.200Z,1023.01
2019-03-27T01:57:48.183Z,1023.04
2019-03-27T01:58:48.244Z,1023.02
2019-03-27T01:59:48.160Z,1022.98
2019-03-27T02:00:48.150Z,1023.06
2019-03-27T02:01:48.142Z,1023.06
2019-03-27T02:02:48.140Z,1023.04
2019-03-27T02:03:48.122Z,1023.11
2019-03-27T02:04:48.158Z,1023.06
2019-03-27T02:05:48.103Z,1023.04
2019-03-27T02:06:48.088Z,1023.02
2019-03-27T02:07:48.084Z,1023.05
2019-03-27T02:08:48.062Z,1023.03
2019-03-27T02:09:48.064Z,1023.08
2019-03-27T02:10:48.045Z,1023.04
2019-03-27T02:11:48.027Z,1023.09
2019-03-27T02:12:48.023Z,1023.07
2019-03-27T02:13:48.005Z,1023.08
2019-03-27T02:14:48.047Z,1023.03
2019-03-27T02:15:47.993Z,1023.02
2019-03-27T02:16:47.972Z,1023.02
2019-03-27T02:17:47.967Z,1023.07
2019-03-27T02:18:47.955Z,1023.04
2019-03-27T02:19:47.992Z,1023.03
2019-03-27T02:20:47.984Z,1023.07
2019-03-27T02:21:47.925Z,1023.03
2019-03-27T02:22:47.908Z,1022.98
2019-03-27T02:23:47.896Z,1023.01
2019-03-27T02:24:47.890Z,1023.03
2019-03-27T02:25:47.931Z,1023.02
2019-03-27T02:26:47.869Z,1023.02
2019-03-27T02:27:47.851Z,1023.02
2019-03-27T02:28:47.842Z,1023.02
2019-03-27T02:29:47.832Z,1023.03
2019-03-27T02:30:47.905Z,1023.03
2019-03-27T02:31:47.808Z,1023.05
2019-03-27T02:32:47.796Z,1023.03
2019-03-27T02:33:47.790Z,1023.04
2019-03-27T02:34:47.779Z,1023.05
2019-03-27T02:35:47.767Z,1023.03
2019-03-27T02:36:47.835Z,1023.04
2019-03-27T02:37:47.742Z,1023.03
2019-03-27T02:38:47.732Z,1022.98
2019-03-27T02:39:47.732Z,1022.99
2019-03-27T02:40:47.717Z,1023.04
2019-03-27T02:41:47.703Z,1023.03
2019-03-27T02:42:47.739Z,1023.10
2019-03-27T02:43:47.686Z,1023.04
2019-03-27T02:44:47.664Z,1023.05
2019-03-27T02:45:47.653Z,1023.07
2019-03-27T02:46:47.647Z,1023.04
2019-03-27T02:47:47.701Z,1023.02
2019-03-27T02:48:47.637Z,1023.04
2019-03-27T02:49:47.619Z,1023.02
2019-03-27T02:50:47.603Z,1023.03
2019-03-27T02:51:47.588Z,1022.99
2019-03-27T02:52:47.584Z,1023.04
2019-03-27T02:53:47.617Z,1022.94
2019-03-27T02:54:47.572Z,1022.99
2019-03-27T02:55:47.554Z,1023.05
2019-03-27T02:56:47.535Z,1023.03
2019-03-27T02:57:47.530Z,1023.02
2019-03-27T02:58:47.509Z,1023.03
2019-03-27T02:59:47.550Z,1023.04
2019-03-27T03:00:47.546Z,1023.09
2019-03-27T03:01:48.257Z,1023.10
2019-03-27T03:02:47.473Z,1023.11
2019-03-27T03:03:47.460Z,1023.09
2019-03-27T03:04:47.504Z,1023.07
2019-03-27T03:05:47.440Z,1023.05
2019-03-27T03:06:47.496Z,1023.05
2019-03-27T03:07:47.410Z,1023.03
2019-03-27T03:08:47.402Z,1023.07
2019-03-27T03:09:47.423Z,1023.12
2019-03-27T03:10:47.416Z,1023.07
2019-03-27T03:11:47.388Z,1023.07
2019-03-27T03:12:47.358Z,1023.04
2019-03-27T03:13:47.342Z,1023.08
2019-03-27T03:14:47.340Z,1023.04
2019-03-27T03:15:47.395Z,1023.04
2019-03-27T03:16:47.330Z,1023.05
2019-03-27T03:17:47.305Z,1023.06
2019-03-27T03:18:47.304Z,1023.02
2019-03-27T03:19:47.287Z,1023.07
2019-03-27T03:20:47.283Z,1023.08
2019-03-27T03:21:47.342Z,1023.09
2019-03-27T03:22:47.246Z,1023.13
2019-03-27T03:23:47.323Z,1023.13
2019-03-27T03:24:47.222Z,1023.15
2019-03-27T03:25:47.245Z,1023.09
2019-03-27T03:26:50.838Z,1023.09
2019-03-27T03:27:47.243Z,1023.11
2019-03-27T03:28:47.182Z,1023.09
2019-03-27T03:29:47.167Z,1023.11
2019-03-27T03:30:47.226Z,1023.10
2019-03-27T03:31:47.154Z,1023.10
2019-03-27T03:32:47.135Z,1023.13
2019-03-27T03:33:47.129Z,1023.16
2019-03-27T03:34:47.117Z,1023.11
2019-03-27T03:35:47.102Z,1023.12
2019-03-27T03:36:47.141Z,1023.17
2019-03-27T03:37:47.086Z,1023.17
2019-03-27T03:38:47.068Z,1023.17
2019-03-27T03:39:47.061Z,1023.18
2019-03-27T03:40:47.048Z,1023.18
2019-03-27T03:41:47.051Z,1023.17
2019-03-27T03:42:47.038Z,1023.20
2019-03-27T03:43:47.014Z,1023.24
2019-03-27T03:44:47.002Z,1023.22
2019-03-27T03:45:47.003Z,1023.31
2019-03-27T03:46:59.536Z,1023.23
2019-03-27T03:47:48.023Z,1023.28
2019-03-27T03:48:47.035Z,1023.28
2019-03-27T03:49:46.951Z,1023.32
2019-03-27T03:50:46.942Z,1023.27
2019-03-27T03:51:46.926Z,1023.28
2019-03-27T03:52:46.962Z,1023.27
2019-03-27T03:53:46.904Z,1023.28
2019-03-27T03:54:46.888Z,1023.30
2019-03-27T03:55:46.889Z,1023.28
2019-03-27T03:56:46.867Z,1023.29
2019-03-27T03:57:46.949Z,1023.29
2019-03-27T03:58:46.847Z,1023.32
2019-03-27T03:59:46.834Z,1023.33
2019-03-27T04:00:46.822Z,1023.31
2019-03-27T04:01:46.820Z,1023.29
2019-03-27T04:02:46.802Z,1023.29
2019-03-27T04:03:46.844Z,1023.32
2019-03-27T04:04:46.782Z,1023.34
2019-03-27T04:05:46.882Z,1023.36
2019-03-27T04:06:46.769Z,1023.37
2019-03-27T04:07:46.748Z,1023.35
2019-03-27T04:08:46.786Z,1023.38
2019-03-27T04:09:46.738Z,1023.44
2019-03-27T04:10:46.714Z,1023.40
2019-03-27T04:11:46.754Z,1023.35
2019-03-27T04:12:46.688Z,1023.38
2019-03-27T04:13:46.675Z,1023.34
2019-03-27T04:14:46.671Z,1023.37
2019-03-27T04:15:46.661Z,1023.35
2019-03-27T04:16:46.696Z,1023.35
2019-03-27T04:17:46.651Z,1023.33
2019-03-27T04:18:46.673Z,1023.35
2019-03-27T04:19:46.615Z,1023.37
2019-03-27T04:20:46.612Z,1023.37
2019-03-27T04:21:46.591Z,1023.37
2019-03-27T04:22:46.579Z,1023.42
2019-03-27T04:23:46.567Z,1023.40
2019-03-27T04:24:46.587Z,1023.40
2019-03-27T04:26:07.917Z,1023.44
2019-03-27T04:26:47.551Z,1023.44
2019-03-27T04:27:46.525Z,1023.40
2019-03-27T04:28:46.520Z,1023.48
2019-03-27T04:29:46.498Z,1023.45
2019-03-27T04:30:46.486Z,1023.45
2019-03-27T04:31:46.552Z,1023.45
2019-03-27T04:32:46.463Z,1023.48
2019-03-27T04:33:46.462Z,1023.50
2019-03-27T04:34:47.342Z,1023.51
2019-03-27T04:35:46.436Z,1023.53
2019-03-27T04:36:46.423Z,1023.57
2019-03-27T04:37:46.430Z,1023.53
2019-03-27T04:38:46.403Z,1023.57
2019-03-27T04:39:46.385Z,1023.59
2019-03-27T04:40:46.377Z,1023.60
2019-03-27T04:41:46.369Z,1023.60
2019-03-27T04:42:46.444Z,1023.57
2019-03-27T04:43:46.395Z,1023.64
2019-03-27T04:44:46.333Z,1023.63
2019-03-27T04:45:46.322Z,1023.61
2019-03-27T04:46:46.313Z,1023.63
2019-03-27T04:47:46.413Z,1023.62
2019-03-27T04:48:46.285Z,1023.60
2019-03-27T04:49:46.277Z,1023.58
2019-03-27T04:50:46.261Z,1023.58
2019-03-27T04:51:46.253Z,1023.61
2019-03-27T04:52:46.244Z,1023.60
2019-03-27T04:53:46.281Z,1023.61
2019-03-27T04:54:46.222Z,1023.62
2019-03-27T04:55:46.214Z,1023.62
2019-03-27T04:56:46.199Z,1023.65
2019-03-27T04:57:46.208Z,1023.65
2019-03-27T04:58:46.226Z,1023.66
2019-03-27T04:59:46.168Z,1023.68
2019-03-27T05:00:46.150Z,1023.69
2019-03-27T05:01:46.146Z,1023.69
2019-03-27T05:02:46.157Z,1023.72
2019-03-27T05:03:46.123Z,1023.74
2019-03-27T05:04:46.181Z,1023.73
2019-03-27T05:05:46.098Z,1023.75
2019-03-27T05:06:46.088Z,1023.69
2019-03-27T05:07:46.090Z,1023.75
2019-03-27T05:08:46.069Z,1023.74
2019-03-27T05:09:46.051Z,1023.75
2019-03-27T05:10:46.091Z,1023.75
2019-03-27T05:11:46.026Z,1023.71
2019-03-27T05:12:46.015Z,1023.73
2019-03-27T05:13:46.007Z,1023.75
2019-03-27T05:14:45.998Z,1023.77
2019-03-27T05:15:46.039Z,1023.83
2019-03-27T05:16:45.977Z,1023.84
2019-03-27T05:17:46.656Z,1023.87
2019-03-27T05:18:45.947Z,1023.89
2019-03-27T05:19:45.944Z,1023.89
2019-03-27T05:20:45.979Z,1023.89
2019-03-27T05:21:45.916Z,1023.91
2019-03-27T05:22:45.903Z,1023.92
2019-03-27T05:23:45.899Z,1023.90
2019-03-27T05:24:45.890Z,1023.87
2019-03-27T05:25:45.963Z,1023.89
2019-03-27T05:26:45.860Z,1023.88
2019-03-27T05:27:45.850Z,1023.87
2019-03-27T05:28:45.841Z,1023.90
2019-03-27T05:29:45.825Z,1023.87
2019-03-27T05:30:45.814Z,1023.88
2019-03-27T05:31:45.855Z,1023.90
2019-03-27T05:32:45.796Z,1023.91
2019-03-27T05:33:45.784Z,1023.86
2019-03-27T05:34:45.770Z,1023.90
2019-03-27T05:35:45.758Z,1023.91
2019-03-27T05:36:45.819Z,1023.93
2019-03-27T05:37:45.775Z,1023.96
2019-03-27T05:38:45.746Z,1023.97
2019-03-27T05:39:45.713Z,1023.94
2019-03-27T05:40:45.701Z,1023.94
2019-03-27T05:41:45.697Z,1023.97
2019-03-27T05:42:59.671Z,1024.00
2019-03-27T05:43:46.686Z,1023.99
2019-03-27T05:44:45.661Z,1024.02
2019-03-27T05:45:45.645Z,1024.05
2019-03-27T05:46:45.654Z,1024.01
2019-03-27T05:47:58.583Z,1024.02
2019-03-27T05:48:46.667Z,1024.05
2019-03-27T05:49:45.607Z,1024.08
2019-03-27T05:50:45.595Z,1024.08
2019-03-27T05:51:45.589Z,1024.09
2019-03-27T05:52:45.609Z,1024.07
2019-03-27T05:53:45.608Z,1024.04
2019-03-27T05:54:45.550Z,1024.06
2019-03-27T05:55:45.534Z,1024.08
2019-03-27T05:56:45.599Z,1024.06
2019-03-27T05:57:45.563Z,1024.09
2019-03-27T05:58:45.573Z,1024.12
2019-03-27T05:59:45.577Z,1024.09
2019-03-27T06:00:45.483Z,1024.12
2019-03-27T06:01:45.467Z,1024.18
2019-03-27T06:02:45.458Z,1024.22
2019-03-27T06:03:45.446Z,1024.20
2019-03-27T06:04:45.485Z,1024.23
2019-03-27T06:05:45.430Z,1024.19
2019-03-27T06:06:45.412Z,1024.22
2019-03-27T06:07:45.403Z,1024.26
2019-03-27T06:08:45.393Z,1024.23
2019-03-27T06:09:45.430Z,1024.22
2019-03-27T06:10:45.400Z,1024.19
2019-03-27T06:11:45.367Z,1024.28
2019-03-27T06:12:45.346Z,1024.32
2019-03-27T06:13:45.339Z,1024.27
2019-03-27T06:14:45.323Z,1024.29
2019-03-27T06:15:45.428Z,1024.27
2019-03-27T06:16:45.301Z,1024.29
2019-03-27T06:17:45.299Z,1024.37
2019-03-27T06:18:45.332Z,1024.36
2019-03-27T06:19:45.266Z,1024.35
2019-03-27T06:20:45.264Z,1024.32
2019-03-27T06:21:45.256Z,1024.39
2019-03-27T06:22:45.244Z,1024.36
2019-03-27T06:23:45.273Z,1024.36
2019-03-27T06:24:45.218Z,1024.37
2019-03-27T06:25:45.199Z,1024.36
2019-03-27T06:26:45.197Z,1024.39
2019-03-27T06:27:45.206Z,1024.38
2019-03-27T06:28:45.170Z,1024.38
2019-03-27T06:29:45.159Z,1024.38
2019-03-27T06:30:45.145Z,1024.39
2019-03-27T06:31:45.132Z,1024.41
2019-03-27T06:32:45.123Z,1024.41
2019-03-27T06:33:45.137Z,1024.46
2019-03-27T06:34:45.119Z,1024.44
2019-03-27T06:35:45.088Z,1024.44
2019-03-27T06:36:45.093Z,1024.41
2019-03-27T06:37:45.069Z,1024.44
2019-03-27T06:38:45.061Z,1024.44
2019-03-27T06:39:45.097Z,1024.43
2019-03-27T06:40:45.086Z,1024.43
2019-03-27T06:41:45.027Z,1024.42
2019-03-27T06:42:45.013Z,1024.38
2019-03-27T06:43:45.077Z,1024.35
2019-03-27T06:44:44.998Z,1024.38
2019-03-27T06:45:45.032Z,1024.42
2019-03-27T06:46:44.976Z,1024.37
2019-03-27T06:47:44.961Z,1024.40
2019-03-27T06:48:44.951Z,1024.39
2019-03-27T06:49:44.939Z,1024.40
2019-03-27T06:50:44.924Z,1024.43
2019-03-27T06:51:44.973Z,1024.40
2019-03-27T06:52:44.954Z,1024.42
2019-03-27T06:53:44.896Z,1024.46
2019-03-27T06:54:44.891Z,1024.45
2019-03-27T06:55:44.920Z,1024.48
2019-03-27T06:56:44.859Z,1024.46
2019-03-27T06:57:44.898Z,1024.44
2019-03-27T06:58:54.398Z,1024.46
2019-03-27T06:59:45.829Z,1024.43
2019-03-27T07:00:44.866Z,1024.42
2019-03-27T07:01:44.807Z,1024.41
2019-03-27T07:02:44.795Z,1024.48
2019-03-27T07:03:44.831Z,1024.45
2019-03-27T07:04:44.770Z,1024.47
2019-03-27T07:05:44.773Z,1024.44
2019-03-27T07:06:44.803Z,1024.40
2019-03-27T07:07:44.753Z,1024.44
2019-03-27T07:08:44.727Z,1024.39
2019-03-27T07:09:44.717Z,1024.38
2019-03-27T07:10:44.701Z,1024.41
2019-03-27T07:11:44.742Z,1024.43
2019-03-27T07:12:44.684Z,1024.46
2019-03-27T07:13:44.673Z,1024.45
2019-03-27T07:14:44.661Z,1024.45
2019-03-27T07:15:44.647Z,1024.47
2019-03-27T07:16:44.639Z,1024.49
2019-03-27T07:17:44.676Z,1024.51
2019-03-27T07:18:44.618Z,1024.49
2019-03-27T07:19:44.615Z,1024.48
2019-03-27T07:20:44.595Z,1024.45
2019-03-27T07:21:44.632Z,1024.45
2019-03-27T07:22:44.574Z,1024.43
2019-03-27T07:23:44.560Z,1024.49
2019-03-27T07:24:44.553Z,1024.48
2019-03-27T07:25:44.534Z,1024.48
2019-03-27T07:26:44.522Z,1024.56
2019-03-27T07:27:44.580Z,1024.54
2019-03-27T07:28:44.507Z,1024.53
2019-03-27T07:29:44.496Z,1024.59
2019-03-27T07:30:44.483Z,1024.55
2019-03-27T07:31:44.472Z,1024.59
2019-03-27T07:32:44.462Z,1024.60
2019-03-27T07:33:44.498Z,1024.62
2019-03-27T07:34:44.454Z,1024.64
2019-03-27T07:35:44.465Z,1024.72
2019-03-27T07:36:44.425Z,1024.64
2019-03-27T07:37:44.408Z,1024.66
2019-03-27T07:38:44.394Z,1024.60
2019-03-27T07:39:44.387Z,1024.58
2019-03-27T07:40:44.420Z,1024.59
2019-03-27T07:41:44.386Z,1024.59
2019-03-27T07:42:44.368Z,1024.60
2019-03-27T07:43:44.351Z,1024.63
2019-03-27T07:44:44.438Z,1024.59
2019-03-27T07:45:44.497Z,1024.67
2019-03-27T07:46:44.302Z,1024.67
2019-03-27T07:47:44.299Z,1024.60
2019-03-27T07:48:53.901Z,1024.68
2019-03-27T07:49:45.270Z,1024.70
2019-03-27T07:50:44.376Z,1024.66
2019-03-27T07:51:44.245Z,1024.64
2019-03-27T07:52:44.244Z,1024.64
2019-03-27T07:53:44.230Z,1024.64
2019-03-27T07:54:44.215Z,1024.67
2019-03-27T07:55:44.209Z,1024.76
2019-03-27T07:56:44.273Z,1024.80
2019-03-27T07:57:44.276Z,1024.83
2019-03-27T07:58:44.177Z,1024.83
2019-03-27T07:59:44.163Z,1024.83
2019-03-27T08:00:44.153Z,1024.85
2019-03-27T08:01:44.164Z,1024.81
2019-03-27T08:02:44.131Z,1024.89
2019-03-27T08:03:44.169Z,1024.85
2019-03-27T08:04:44.112Z,1024.88
2019-03-27T08:05:44.105Z,1024.87
2019-03-27T08:06:44.088Z,1024.90
2019-03-27T08:07:44.124Z,1024.88
2019-03-27T08:08:44.111Z,1024.84
2019-03-27T08:09:44.058Z,1024.96
2019-03-27T08:10:44.041Z,1024.95
2019-03-27T08:11:44.026Z,1024.88
2019-03-27T08:12:44.022Z,1024.91
2019-03-27T08:13:44.075Z,1024.91
2019-03-27T08:14:43.998Z,1024.90
2019-03-27T08:15:43.986Z,1024.95
2019-03-27T08:16:43.970Z,1024.96
2019-03-27T08:17:43.958Z,1024.95
2019-03-27T08:18:43.948Z,1024.93
2019-03-27T08:19:43.989Z,1024.95
2019-03-27T08:20:43.932Z,1024.89
2019-03-27T08:21:43.945Z,1024.93
2019-03-27T08:22:43.902Z,1024.91
2019-03-27T08:23:43.895Z,1024.96
2019-03-27T08:24:43.947Z,1024.99
2019-03-27T08:25:43.876Z,1024.99
2019-03-27T08:26:43.869Z,1024.95
2019-03-27T08:27:43.853Z,1025.00
2019-03-27T08:28:43.841Z,1025.00
2019-03-27T08:29:43.830Z,1024.99
2019-03-27T08:30:43.866Z,1024.99
2019-03-27T08:31:43.808Z,1024.99
2019-03-27T08:32:43.792Z,1024.97
2019-03-27T08:33:43.787Z,1024.97
2019-03-27T08:34:43.775Z,1024.95
2019-03-27T08:35:43.830Z,1024.95
2019-03-27T08:36:43.751Z,1024.95
2019-03-27T08:37:43.735Z,1025.00
2019-03-27T08:38:43.762Z,1025.03
2019-03-27T08:39:43.719Z,1025.02
2019-03-27T08:40:43.704Z,1025.06
2019-03-27T08:41:43.749Z,1025.04
2019-03-27T08:42:43.683Z,1025.05
2019-03-27T08:43:43.670Z,1025.05
2019-03-27T08:44:43.660Z,1025.06
2019-03-27T08:45:43.650Z,1025.02
2019-03-27T08:46:43.643Z,1025.09
2019-03-27T08:47:43.668Z,1025.05
2019-03-27T08:48:43.620Z,1025.05
2019-03-27T08:49:43.600Z,1025.02
2019-03-27T08:50:43.603Z,1025.05
2019-03-27T08:51:43.632Z,1025.06
2019-03-27T08:52:43.574Z,1025.09
2019-03-27T08:53:43.555Z,1025.07
2019-03-27T08:54:43.545Z,1025.10
2019-03-27T08:55:43.545Z,1025.14
2019-03-27T08:56:43.522Z,1025.13
2019-03-27T08:57:43.523Z,1025.10
2019-03-27T08:58:43.552Z,1025.04
2019-03-27T08:59:43.496Z,1025.06
2019-03-27T09:00:43.480Z,1025.03
2019-03-27T09:01:43.466Z,1025.05
2019-03-27T09:02:43.508Z,1025.04
2019-03-27T09:03:43.444Z,1024.98
2019-03-27T09:04:43.440Z,1025.02
2019-03-27T09:05:43.429Z,1025.01
2019-03-27T09:06:43.415Z,1025.02
2019-03-27T09:07:43.453Z,1024.98
2019-03-27T09:08:43.390Z,1024.96
2019-03-27T09:09:43.376Z,1025.05
2019-03-27T09:10:43.372Z,1025.03
2019-03-27T09:11:43.363Z,1025.11
2019-03-27T09:12:43.396Z,1025.08
2019-03-27T09:13:43.334Z,1025.04
2019-03-27T09:14:43.337Z,1025.10
2019-03-27T09:15:43.362Z,1025.01
2019-03-27T09:16:43.303Z,1025.03
2019-03-27T09:17:43.291Z,1025.08
2019-03-27T09:18:43.282Z,1025.08
2019-03-27T09:19:43.272Z,1025.09
2019-03-27T09:20:43.328Z,1025.07
2019-03-27T09:21:43.249Z,1025.04
2019-03-27T09:22:43.232Z,1025.05
2019-03-27T09:23:45.749Z,1025.04
2019-03-27T09:24:43.210Z,1025.00
2019-03-27T09:25:43.216Z,1025.04
2019-03-27T09:26:43.240Z,1025.02
2019-03-27T09:27:43.181Z,1025.07
2019-03-27T09:28:43.171Z,1025.03
2019-03-27T09:29:43.156Z,1025.02
2019-03-27T09:30:43.149Z,1025.01
2019-03-27T09:31:45.140Z,1024.94
2019-03-27T09:32:43.141Z,1024.99
2019-03-27T09:33:43.116Z,1025.03
2019-03-27T09:34:43.105Z,1025.05
2019-03-27T09:35:43.139Z,1025.03
2019-03-27T09:36:43.118Z,1025.05
2019-03-27T09:37:43.068Z,1025.04
2019-03-27T09:38:43.054Z,1025.08
2019-03-27T09:39:43.044Z,1025.04
2019-03-27T09:40:43.037Z,1025.00
2019-03-27T09:41:43.075Z,1025.07
2019-03-27T09:42:43.013Z,1025.08
2019-03-27T09:43:43.005Z,1025.06
2019-03-27T09:44:43.040Z,1025.09
2019-03-27T09:45:43.049Z,1025.06
2019-03-27T09:46:42.969Z,1025.09
2019-03-27T09:47:43.008Z,1025.10
2019-03-27T09:48:42.970Z,1025.10
2019-03-27T09:49:49.380Z,1025.11
2019-03-27T09:50:43.925Z,1025.09
2019-03-27T09:51:42.908Z,1025.13
2019-03-27T09:52:43.045Z,1025.21
2019-03-27T09:53:42.891Z,1025.10
2019-03-27T09:54:42.874Z,1025.10
2019-03-27T09:55:42.869Z,1025.11
2019-03-27T09:56:42.852Z,1025.17
2019-03-27T09:57:42.846Z,1025.18
2019-03-27T09:58:42.881Z,1025.12
2019-03-27T09:59:42.817Z,1025.10
2019-03-27T10:00:42.840Z,1025.13
2019-03-27T10:01:42.800Z,1025.16
2019-03-27T10:02:42.787Z,1025.13
2019-03-27T10:03:42.934Z,1025.11
2019-03-27T10:04:42.762Z,1025.12
2019-03-27T10:05:42.756Z,1025.18
2019-03-27T10:06:42.740Z,1025.12
2019-03-27T10:07:42.735Z,1025.11
2019-03-27T10:08:42.718Z,1025.16
2019-03-27T10:09:42.812Z,1025.15
2019-03-27T10:10:42.694Z,1025.15
2019-03-27T10:11:42.689Z,1025.12
2019-03-27T10:12:42.678Z,1025.16
2019-03-27T10:13:42.674Z,1025.16
2019-03-27T10:14:42.654Z,1025.15
2019-03-27T10:15:42.766Z,1025.18
2019-03-27T10:16:42.631Z,1025.16
2019-03-27T10:17:42.641Z,1025.13
2019-03-27T10:18:42.660Z,1025.15
2019-03-27T10:19:42.604Z,1025.16
2019-03-27T10:20:42.584Z,1025.18
2019-03-27T10:21:42.582Z,1025.18
2019-03-27T10:22:42.591Z,1025.18
2019-03-27T10:23:42.603Z,1025.16
2019-03-27T10:24:42.542Z,1025.20
2019-03-27T10:25:42.559Z,1025.19
2019-03-27T10:26:42.957Z,1025.17
2019-03-27T10:27:42.557Z,1025.19
2019-03-27T10:28:42.511Z,1025.19
2019-03-27T10:29:42.482Z,1025.25
2019-03-27T10:30:42.482Z,1025.21
2019-03-27T10:31:42.460Z,1025.21
2019-03-27T10:32:42.448Z,1025.27
2019-03-27T10:33:42.446Z,1025.29
2019-03-27T10:34:42.442Z,1025.23
2019-03-27T10:35:42.421Z,1025.25
2019-03-27T10:36:42.417Z,1025.25
2019-03-27T10:37:42.392Z,1025.20
2019-03-27T10:38:42.384Z,1025.25
2019-03-27T10:39:42.377Z,1025.19
2019-03-27T10:40:42.365Z,1025.20
2019-03-27T10:41:42.418Z,1025.24
2019-03-27T10:42:42.338Z,1025.21
2019-03-27T10:43:42.334Z,1025.18
2019-03-27T10:44:42.319Z,1025.17
2019-03-27T10:45:42.312Z,1025.18
2019-03-27T10:46:42.364Z,1025.23
2019-03-27T10:47:42.280Z,1025.24
2019-03-27T10:48:52.589Z,1025.21
2019-03-27T10:49:43.271Z,1025.17
2019-03-27T10:50:42.253Z,1025.20
2019-03-27T10:51:42.241Z,1025.15
2019-03-27T10:52:42.297Z,1025.19
2019-03-27T10:53:42.215Z,1025.18
2019-03-27T10:54:42.202Z,1025.22
2019-03-27T10:55:42.196Z,1025.23
2019-03-27T10:56:42.181Z,1025.22
2019-03-27T10:57:42.214Z,1025.25
2019-03-27T10:58:42.198Z,1025.27
2019-03-27T10:59:42.150Z,1025.24
2019-03-27T11:00:42.138Z,1025.26
2019-03-27T11:01:42.124Z,1025.29
2019-03-27T11:02:42.164Z,1025.24
2019-03-27T11:03:42.111Z,1025.29
2019-03-27T11:04:42.090Z,1025.30
2019-03-27T11:05:42.083Z,1025.31
2019-03-27T11:06:42.073Z,1025.26
2019-03-27T11:07:42.130Z,1025.23
2019-03-27T11:08:42.044Z,1025.23
2019-03-27T11:09:42.034Z,1025.26
2019-03-27T11:10:42.022Z,1025.30
2019-03-27T11:11:42.016Z,1025.31
2019-03-27T11:12:42.052Z,1025.29
2019-03-27T11:13:41.997Z,1025.27
2019-03-27T11:14:41.979Z,1025.29
2019-03-27T11:15:41.969Z,1025.28
2019-03-27T11:16:41.959Z,1025.24
2019-03-27T11:17:42.018Z,1025.23
2019-03-27T11:18:41.937Z,1025.25
2019-03-27T11:19:41.919Z,1025.24
2019-03-27T11:20:41.916Z,1025.23
2019-03-27T11:21:41.897Z,1025.20
2019-03-27T11:22:41.893Z,1025.18
2019-03-27T11:23:41.909Z,1025.15
2019-03-27T11:24:41.864Z,1025.18
2019-03-27T11:25:41.883Z,1025.17
2019-03-27T11:26:41.842Z,1025.21
2019-03-27T11:27:41.835Z,1025.22
2019-03-27T11:28:41.819Z,1025.18
2019-03-27T11:29:41.841Z,1025.23
2019-03-27T11:30:41.808Z,1025.14
2019-03-27T11:31:41.791Z,1025.23
2019-03-27T11:32:41.785Z,1025.20
2019-03-27T11:33:41.838Z,1025.24
2019-03-27T11:34:41.767Z,1025.20
2019-03-27T11:35:41.746Z,1025.18
2019-03-27T11:36:41.739Z,1025.18
2019-03-27T11:37:41.721Z,1025.15
2019-03-27T11:38:41.713Z,1025.12
2019-03-27T11:39:41.733Z,1025.10
2019-03-27T11:40:41.692Z,1025.12
2019-03-27T11:41:41.681Z,1025.09
2019-03-27T11:42:41.668Z,1025.12
2019-03-27T11:43:54.177Z,1025.09
2019-03-27T11:44:42.683Z,1025.12
2019-03-27T11:45:41.703Z,1025.14
2019-03-27T11:46:41.619Z,1025.15
2019-03-27T11:47:41.608Z,1025.10
2019-03-27T11:48:41.602Z,1025.11
2019-03-27T11:49:41.604Z,1025.09
2019-03-27T11:50:45.212Z,1025.15
2019-03-27T11:51:41.615Z,1025.12
2019-03-27T11:52:41.573Z,1025.13
2019-03-27T11:53:41.540Z,1025.11
2019-03-27T11:54:41.530Z,1025.15
2019-03-27T11:55:41.668Z,1025.08
2019-03-27T11:56:41.519Z,1025.09
2019-03-27T11:57:41.497Z,1025.08
2019-03-27T11:58:41.486Z,1025.07
2019-03-27T11:59:53.287Z,1025.04
2019-03-27T12:00:53.782Z,1025.02
2019-03-27T12:01:43.865Z,1025.06
2019-03-27T12:02:41.496Z,1025.04
2019-03-27T12:03:41.432Z,1025.04
2019-03-27T12:04:41.420Z,1024.97
2019-03-27T12:05:41.416Z,1024.99